Terminal Aerodrome Forecast
Issued by NWS

Home | Current Version | Previous Version | Text Only | Print | Product List | Glossary On
Versions: 1 2 3 4 5 6 7 8 9 10 11 12 13 14 15 16 17 18 19 20 21 22 23 24 25 26 27
000
FTUS41 KBTV 022330
TAFSLK
TAF
KSLK 022330Z 0300/0324 27008KT 1SM -SHSN BR OVC010
     FM030100 28008KT P6SM VCSH OVC010
      TEMPO 0301/0305 3SM -SN BR
     FM031300 31007KT 3SM -SHSN BR OVC015
     FM031600 31007KT P6SM VCSH OVC015
     FM032000 29007KT P6SM VCSH OVC025=

USA.gov is the U.S. government's official web portal to all federal, state and local government web resources and services.